Impacts TAF Board INFO
FOR SITUATIONAL AWARENESS. NOT TO BE USED FOR FLIGHT PLANNING PURPOSES.
IDs:

KLAS - Las Vegas/McCarran I, NV, US

Issued at 0255 UTC 21 Jan 2018
Updated at 0416 UTC 21 Jan 2018
Potential Impact None Slight Moderate High
Time0356Z 21/05Z 21/06Z 21/07Z 21/08Z 21/09Z 21/10Z 21/11Z 21/12Z 21/13Z 21/14Z 21/15Z 21/16Z 21/17Z>>
Type OBS PRVL PRVL PRVL PRVL PRVL PRVL PRVL PRVL PRVL PRVL PRVL PRVL PRVL
VIS 10 >6 >6 >6 >6 >6 >6 >6 >6 >6 >6 >6 >6 >6
CIG -- -- -- -- -- -- -- -- -- -- -- -- -- --
Cover FEW FEW FEW FEW FEW FEW FEW FEW FEW FEW FEW FEW FEW FEW
FltCat VFR VFR VFR VFR VFR VFR VFR VFR VFR VFR VFR VFR VFR VFR
WX -- -- -- -- -- -- -- -- -- -- -- -- -- --
WDir 290 340 340 340 340 340 340 340 340 340 340 340 340 40
WSpd 10 12 12 12 12 12 12 12 8 8 8 8 8 7
WGst -- 20 20 20 20 20 20 20 -- -- -- -- -- --

Raw TAF
KLAS 210255Z 2103/2206 01009KT P6SM FEW060 SCT100
  FM210500 34012G20KT P6SM FEW100
  FM211200 34008KT P6SM FEW250
  FM211700 04007KT P6SM FEW250
  FM212300 VRB05KT P6SM SCT250


Raw METAR
KLAS 210356Z 29010KT 10SM FEW100 08/M06 A3002 RMK AO2 SLP164 T00781056 $
KLAS 210256Z 35006KT 10SM FEW050 FEW100 08/M02 A3000 RMK AO2 SLP157 T00831017 53024 $
KLAS 210156Z 33013KT 10SM FEW050 SCT080 SCT110 09/M05 A2997 RMK AO2 SLP148 T00891050 $

METAR Board
Radar Display
Forecast Discussion

FOR SITUATIONAL AWARENESS. NOT TO BE USED FOR FLIGHT PLANNING PURPOSES.